Time;durP1;ratioP1;P1;durP2;ratioP2;P2;SDS_P1;SDS_P2;PMS_P1;PMS_P2;Temp;Humidity;BMP_temperature;BMP_pressure;BME280_temperature;BME280_humidity;BME280_pressure;Samples;Min_cycle;Max_cycle;Signal;HPM_P1;HPM_P2
2022/06/08 00:00:42;;;;;;;8.23;5.13;;;12.30;99.90;;;;;;4984430;28;20042;-65
2022/06/08 00:03:11;;;;;;;7.05;5.07;;;12.20;99.90;;;;;;4976338;28;20074;-65
2022/06/08 00:05:37;;;;;;;10.43;5.53;;;12.20;99.90;;;;;;4971872;28;20042;-66
2022/06/08 00:08:03;;;;;;;9.38;6.20;;;12.20;99.90;;;;;;4971468;28;20540;-67
2022/06/08 00:10:29;;;;;;;7.07;5.50;;;12.20;99.90;;;;;;4973549;28;20105;-65
2022/06/08 00:12:55;;;;;;;8.48;6.43;;;12.20;99.90;;;;;;4953438;28;20521;-68
2022/06/08 00:15:21;;;;;;;8.27;6.40;;;12.20;99.90;;;;;;4972065;28;20034;-64
2022/06/08 00:17:47;;;;;;;10.15;6.47;;;12.20;99.90;;;;;;4976708;28;20465;-64
2022/06/08 00:20:13;;;;;;;9.93;6.80;;;12.30;99.90;;;;;;4972770;28;20042;-64
2022/06/08 00:22:40;;;;;;;12.27;7.82;;;12.30;99.90;;;;;;4976879;28;20043;-65
2022/06/08 00:25:06;;;;;;;13.35;8.35;;;12.30;99.90;;;;;;4968738;28;20068;-65
2022/06/08 00:27:32;;;;;;;12.15;8.85;;;12.40;99.90;;;;;;4968387;28;20409;-67
2022/06/08 00:29:59;;;;;;;12.75;8.75;;;12.40;99.90;;;;;;4951111;28;20034;-64
2022/06/08 00:32:24;;;;;;;14.35;8.30;;;12.40;99.90;;;;;;4988617;28;20428;-65
2022/06/08 00:34:50;;;;;;;13.20;8.43;;;12.50;99.90;;;;;;4975227;28;20197;-67
2022/06/08 00:37:16;;;;;;;15.20;8.35;;;12.50;99.90;;;;;;4954205;28;20482;-64
2022/06/08 00:39:41;;;;;;;11.98;8.68;;;12.50;99.90;;;;;;4947693;28;20039;-64
2022/06/08 00:42:11;;;;;;;12.75;9.20;;;12.60;99.90;;;;;;4969682;28;20485;-64
2022/06/08 00:44:48;;;;;;;11.50;8.80;;;12.60;99.90;;;;;;4953765;28;20070;-67
2022/06/08 00:47:19;;;;;;;12.05;8.57;;;12.60;99.90;;;;;;4972916;28;20073;-70
2022/06/08 00:49:56;;;;;;;12.20;8.60;;;12.60;99.90;;;;;;4972129;28;20039;-65
2022/06/08 00:52:22;;;;;;;14.35;8.98;;;12.70;99.90;;;;;;4973780;28;20428;-64
2022/06/08 00:54:52;;;;;;;16.80;9.50;;;12.70;99.90;;;;;;4957249;28;20051;-65
2022/06/08 00:57:26;;;;;;;12.23;9.00;;;12.70;99.90;;;;;;4977437;28;20042;-65
2022/06/08 00:59:57;;;;;;;11.45;7.55;;;12.70;99.90;;;;;;4974648;28;20117;-65
2022/06/08 01:02:22;;;;;;;10.07;6.95;;;12.70;99.90;;;;;;4957819;28;20035;-65
2022/06/08 01:04:48;;;;;;;9.07;7.20;;;12.70;99.90;;;;;;4964386;28;20405;-65
2022/06/08 01:07:20;;;;;;;9.48;7.55;;;12.70;99.90;;;;;;4947017;28;20043;-69
2022/06/08 01:09:46;;;;;;;;;;;12.70;99.90;;;;;;4958114;28;20505;-65
2022/06/08 01:12:19;;;;;;;13.70;8.30;;;12.70;99.90;;;;;;4972327;28;20037;-65
2022/06/08 01:14:47;;;;;;;14.77;8.98;;;12.70;99.90;;;;;;4972880;28;20039;-66
2022/06/08 01:17:16;;;;;;;12.68;8.63;;;12.70;99.90;;;;;;4958579;28;20043;-69
2022/06/08 01:19:46;;;;;;;14.48;9.93;;;12.70;99.90;;;;;;4960678;28;20090;-65
2022/06/08 01:22:15;;;;;;;14.73;11.07;;;12.70;99.90;;;;;;4955882;28;20039;-66
2022/06/08 01:24:43;;;;;;;16.52;11.73;;;12.80;99.90;;;;;;4972323;28;20505;-64
2022/06/08 01:27:37;;;;;;;14.82;11.70;;;12.80;99.90;;;;;;4973223;28;20501;-64
2022/06/08 01:30:23;;;;;;;15.32;12.18;;;12.80;99.90;;;;;;4972136;28;20110;-65
2022/06/08 01:33:07;;;;;;;17.65;12.75;;;12.80;99.90;;;;;;4974708;28;20413;-64
2022/06/08 01:36:01;;;;;;;20.98;13.57;;;12.90;99.90;;;;;;4955807;28;20053;-65
2022/06/08 01:38:54;;;;;;;17.20;12.93;;;12.90;99.90;;;;;;4953859;28;20055;-65
2022/06/08 01:42:02;;;;;;;16.48;12.80;;;12.90;99.90;;;;;;4954717;28;20039;-67
2022/06/08 01:47:58;;;;;;;17.05;12.50;;;13.00;99.90;;;;;;4951457;28;20063;-68
2022/06/08 01:50:45;;;;;;;17.23;12.57;;;13.00;99.90;;;;;;4965831;28;20045;-67
2022/06/08 01:53:34;;;;;;;18.30;12.88;;;13.00;99.90;;;;;;4970593;28;20043;-64
2022/06/08 01:56:13;;;;;;;17.65;12.32;;;13.00;99.90;;;;;;4971795;28;20047;-65
2022/06/08 01:58:54;;;;;;;19.58;13.63;;;13.00;99.90;;;;;;4966869;28;20038;-66
2022/06/08 02:01:44;;;;;;;16.08;12.60;;;13.10;99.90;;;;;;4955632;28;20445;-66
2022/06/08 02:04:23;;;;;;;19.88;13.02;;;13.10;99.90;;;;;;4973966;28;20067;-66
2022/06/08 02:06:57;;;;;;;18.77;13.43;;;13.10;99.90;;;;;;4958510;28;20047;-66
2022/06/08 02:09:36;;;;;;;21.60;13.32;;;13.10;99.90;;;;;;4955026;28;20047;-66
2022/06/08 02:12:09;;;;;;;19.63;13.88;;;13.10;99.90;;;;;;4953866;28;20046;-66
2022/06/08 02:14:45;;;;;;;20.38;14.02;;;13.10;99.90;;;;;;4970831;28;20125;-66
2022/06/08 02:17:18;;;;;;;20.05;14.63;;;13.10;99.90;;;;;;4973556;28;20702;-66
2022/06/08 02:19:47;;;;;;;20.10;13.35;;;13.20;99.90;;;;;;4973126;28;20400;-66
2022/06/08 02:22:29;;;;;;;22.25;13.70;;;13.20;99.90;;;;;;4967680;28;20800;-66
2022/06/08 02:25:13;;;;;;;19.55;13.93;;;13.20;99.90;;;;;;4972878;28;20038;-66
2022/06/08 02:27:49;;;;;;;18.58;13.02;;;13.20;99.90;;;;;;4960013;28;20077;-66
2022/06/08 02:30:23;;;;;;;22.15;14.05;;;13.20;99.90;;;;;;4956223;28;20043;-66
2022/06/08 02:36:29;;;;;;;17.88;13.82;;;13.20;99.90;;;;;;4968684;28;20039;-66
2022/06/08 02:39:03;;;;;;;19.63;14.32;;;13.20;99.90;;;;;;4949483;28;20098;-66
2022/06/08 02:41:31;;;;;;;18.17;13.70;;;13.20;99.90;;;;;;4972543;28;20453;-66
2022/06/08 02:44:05;;;;;;;18.10;13.60;;;13.20;99.90;;;;;;4955957;28;20178;-66
2022/06/08 02:46:45;;;;;;;17.15;13.48;;;13.20;99.90;;;;;;4969381;28;20133;-66
2022/06/08 02:49:11;;;;;;;21.90;14.18;;;13.20;99.90;;;;;;4971280;28;20462;-66
2022/06/08 02:51:42;;;;;;;18.67;13.32;;;13.20;99.90;;;;;;4971475;28;20077;-66
2022/06/08 02:54:19;;;;;;;19.92;14.00;;;13.20;99.90;;;;;;4972327;28;20306;-64
2022/06/08 02:56:56;;;;;;;19.50;14.43;;;13.20;99.90;;;;;;4955701;28;20074;-65
2022/06/08 02:59:28;;;;;;;19.58;13.20;;;13.20;99.90;;;;;;4971221;28;20055;-64
2022/06/08 03:02:04;;;;;;;22.20;14.50;;;13.20;99.90;;;;;;4955005;28;20038;-68
2022/06/08 03:04:36;;;;;;;19.98;14.35;;;13.20;99.90;;;;;;4968352;28;20044;-65
2022/06/08 03:07:09;;;;;;;20.27;14.43;;;13.20;99.90;;;;;;4969638;28;20038;-64
2022/06/08 03:09:37;;;;;;;20.42;14.40;;;13.20;99.90;;;;;;4954319;28;20043;-65
2022/06/08 03:12:10;;;;;;;20.35;14.40;;;13.20;99.90;;;;;;4971371;28;20042;-65
2022/06/08 03:14:36;;;;;;;20.33;14.23;;;13.20;99.90;;;;;;4947083;28;20444;-68
2022/06/08 03:17:05;;;;;;;22.42;14.73;;;13.20;99.90;;;;;;4967524;28;20122;-64
2022/06/08 03:19:34;;;;;;;22.27;14.82;;;13.20;99.90;;;;;;4951733;28;20045;-65
2022/06/08 03:21:59;;;;;;;21.85;15.15;;;13.20;99.90;;;;;;4971779;28;20042;-65
2022/06/08 03:24:26;;;;;;;22.23;15.15;;;13.30;99.90;;;;;;4972881;28;20480;-65
2022/06/08 03:26:55;;;;;;;20.90;15.52;;;13.20;99.90;;;;;;4972602;28;20453;-65
2022/06/08 03:29:22;;;;;;;22.95;16.30;;;13.30;99.90;;;;;;4953520;28;20034;-65
2022/06/08 03:31:49;;;;;;;23.67;15.95;;;13.30;99.90;;;;;;4972045;28;20153;-65
2022/06/08 03:34:16;;;;;;;23.90;14.77;;;13.30;99.90;;;;;;4948548;28;20058;-66
2022/06/08 03:36:42;;;;;;;21.60;15.75;;;13.30;99.90;;;;;;4971075;28;20404;-65
2022/06/08 03:39:08;;;;;;;23.38;15.88;;;13.30;99.90;;;;;;4970556;28;20260;-64
2022/06/08 03:41:34;;;;;;;21.98;16.95;;;13.30;99.90;;;;;;4954507;28;20408;-65
2022/06/08 03:44:00;;;;;;;22.17;15.30;;;13.30;99.90;;;;;;4971232;28;20039;-64
2022/06/08 03:46:27;;;;;;;24.02;16.13;;;13.40;99.90;;;;;;4971404;28;20117;-64
2022/06/08 03:48:56;;;;;;;24.65;17.60;;;13.40;99.90;;;;;;4960898;28;20608;-68
2022/06/08 03:51:22;;;;;;;21.77;16.85;;;13.40;99.90;;;;;;4973565;28;20038;-64
2022/06/08 03:53:58;;;;;;;23.70;16.90;;;13.40;99.90;;;;;;4972116;28;20039;-65
2022/06/08 03:56:27;;;;;;;24.98;17.55;;;13.40;99.90;;;;;;4972059;28;20066;-65
2022/06/08 03:58:54;;;;;;;24.38;17.60;;;13.40;99.90;;;;;;4964703;28;20039;-65
2022/06/08 04:01:20;;;;;;;27.33;18.05;;;13.50;99.90;;;;;;4967240;28;20046;-67
2022/06/08 04:03:47;;;;;;;24.05;17.98;;;13.40;99.90;;;;;;4969735;28;20043;-65
2022/06/08 04:06:13;;;;;;;23.70;17.42;;;13.50;99.90;;;;;;4969813;28;20071;-65
2022/06/08 04:08:39;;;;;;;23.42;18.10;;;13.50;99.90;;;;;;4971598;28;20074;-65
2022/06/08 04:11:05;;;;;;;24.17;18.35;;;13.50;99.90;;;;;;4947652;28;20066;-65
2022/06/08 04:13:31;;;;;;;27.02;18.63;;;13.50;99.90;;;;;;4967617;28;20050;-66
2022/06/08 04:15:56;;;;;;;26.88;19.58;;;13.50;99.90;;;;;;4953130;28;20510;-65
2022/06/08 04:18:23;;;;;;;26.80;19.15;;;13.50;99.90;;;;;;4958705;28;20074;-66
2022/06/08 04:20:52;;;;;;;25.52;19.55;;;13.50;99.90;;;;;;4953570;28;20085;-65
2022/06/08 04:23:19;;;;;;;26.40;18.75;;;13.50;99.90;;;;;;4966934;28;20061;-65
2022/06/08 04:25:46;;;;;;;26.30;18.85;;;13.50;99.90;;;;;;4969964;28;20126;-65
2022/06/08 04:28:15;;;;;;;26.05;18.98;;;13.60;99.90;;;;;;4968561;28;20046;-65
2022/06/08 04:30:41;;;;;;;25.55;18.33;;;13.60;99.90;;;;;;4970688;28;20058;-66
2022/06/08 04:33:07;;;;;;;29.02;19.77;;;13.60;99.90;;;;;;4970827;28;20047;-65
2022/06/08 04:35:33;;;;;;;29.40;18.88;;;13.60;99.90;;;;;;4968915;28;20043;-65
2022/06/08 04:38:00;;;;;;;30.90;19.95;;;13.70;99.90;;;;;;4952533;28;20039;-67
2022/06/08 04:40:26;;;;;;;27.50;19.13;;;13.70;99.90;;;;;;4953680;28;20039;-66
2022/06/08 04:42:52;;;;;;;27.05;18.38;;;13.70;99.90;;;;;;4954586;28;20114;-66
2022/06/08 04:45:18;;;;;;;30.83;20.95;;;13.80;99.90;;;;;;4969206;28;20051;-65
2022/06/08 04:47:44;;;;;;;27.42;19.55;;;13.80;99.90;;;;;;4949474;28;20047;-65
2022/06/08 04:50:11;;;;;;;25.13;19.08;;;13.80;99.90;;;;;;4967707;28;20035;-65
2022/06/08 04:52:37;;;;;;;24.05;18.92;;;13.90;99.90;;;;;;4967330;28;20039;-65
2022/06/08 04:55:04;;;;;;;34.38;20.60;;;13.90;99.90;;;;;;4968539;28;20053;-65
2022/06/08 04:57:33;;;;;;;29.98;20.55;;;13.90;99.90;;;;;;4959106;28;20125;-65
2022/06/08 04:59:59;;;;;;;25.13;18.23;;;14.00;99.90;;;;;;4969686;28;20185;-68
2022/06/08 05:02:44;;;;;;;25.63;19.58;;;14.00;99.90;;;;;;4953270;28;20049;-67
2022/06/08 05:05:19;;;;;;;28.02;20.27;;;14.10;99.90;;;;;;4967291;28;20050;-65
2022/06/08 05:07:47;;;;;;;26.98;20.17;;;14.10;99.90;;;;;;4970676;28;20054;-66
2022/06/08 05:10:13;;;;;;;29.55;20.30;;;14.10;99.90;;;;;;4953138;28;20039;-65
2022/06/08 05:12:39;;;;;;;28.77;20.42;;;14.20;99.90;;;;;;4953626;28;20621;-65
2022/06/08 05:15:12;;;;;;;27.70;19.60;;;14.20;99.90;;;;;;4970525;28;20054;-65
2022/06/08 05:17:38;;;;;;;28.90;19.95;;;14.20;99.90;;;;;;4968971;28;20047;-65
2022/06/08 05:20:05;;;;;;;28.95;19.85;;;14.20;99.90;;;;;;4960298;28;20109;-68
2022/06/08 05:22:31;;;;;;;27.30;19.85;;;14.30;99.90;;;;;;4950253;28;20054;-65
2022/06/08 05:24:58;;;;;;;24.35;19.25;;;14.40;99.90;;;;;;4952389;28;20121;-65
2022/06/08 05:27:23;;;;;;;29.45;19.90;;;14.40;99.90;;;;;;4968833;28;20121;-65
2022/06/08 05:29:49;;;;;;;28.88;20.23;;;14.40;99.90;;;;;;4969092;28;20576;-65
2022/06/08 05:32:15;;;;;;;26.75;19.40;;;14.50;99.90;;;;;;4967206;28;20051;-65
2022/06/08 05:34:41;;;;;;;29.60;19.60;;;14.50;99.90;;;;;;4971484;28;20050;-65
2022/06/08 05:37:06;;;;;;;31.33;19.90;;;14.60;99.90;;;;;;4969577;28;20117;-67
2022/06/08 05:39:32;;;;;;;26.95;20.38;;;14.60;99.90;;;;;;4972283;28;20446;-68
2022/06/08 05:41:58;;;;;;;26.08;19.45;;;14.60;99.90;;;;;;4955213;28;20401;-65
2022/06/08 05:44:23;;;;;;;35.45;20.30;;;14.60;99.90;;;;;;4973530;28;20038;-65
2022/06/08 05:46:50;;;;;;;27.75;20.02;;;14.60;99.90;;;;;;4970276;28;20034;-65
2022/06/08 05:49:17;;;;;;;25.80;19.30;;;14.70;99.90;;;;;;4957867;28;20042;-65
2022/06/08 05:51:44;;;;;;;27.35;20.50;;;14.70;99.90;;;;;;4976462;28;20057;-65
2022/06/08 05:54:11;;;;;;;27.60;19.38;;;14.70;99.90;;;;;;4978643;28;20497;-66
2022/06/08 05:56:37;;;;;;;27.83;19.45;;;14.80;99.90;;;;;;4973164;28;20497;-66
2022/06/08 05:59:04;;;;;;;30.55;20.75;;;14.80;99.90;;;;;;4972894;28;20030;-66
2022/06/08 06:01:31;;;;;;;28.27;20.05;;;14.90;99.90;;;;;;4971401;28;20043;-65
2022/06/08 06:03:59;;;;;;;30.05;20.95;;;14.80;99.90;;;;;;4971950;28;20460;-66
2022/06/08 06:06:25;;;;;;;26.00;19.80;;;14.90;99.90;;;;;;4977576;28;20050;-65
2022/06/08 06:08:50;;;;;;;32.72;19.95;;;15.00;99.90;;;;;;4971504;28;20045;-65
2022/06/08 06:11:16;;;;;;;33.25;21.85;;;15.00;99.90;;;;;;4969585;28;20564;-65
2022/06/08 06:13:42;;;;;;;28.23;20.45;;;15.00;99.90;;;;;;4956451;28;20125;-65
2022/06/08 06:16:09;;;;;;;27.25;20.88;;;15.00;99.90;;;;;;4976633;28;20034;-64
2022/06/08 06:18:35;;;;;;;29.25;19.83;;;15.00;99.90;;;;;;4971937;28;20030;-65
2022/06/08 06:21:01;;;;;;;26.10;18.90;;;15.10;99.90;;;;;;4971939;28;20093;-65
2022/06/08 06:23:27;;;;;;;22.30;17.38;;;15.20;99.90;;;;;;4972678;28;20047;-65
2022/06/08 06:25:54;;;;;;;22.00;16.90;;;15.20;99.90;;;;;;4956421;28;20050;-65
2022/06/08 06:28:19;;;;;;;23.55;16.65;;;15.40;99.90;;;;;;4973067;28;20039;-65
2022/06/08 06:30:45;;;;;;;24.08;16.00;;;15.40;99.90;;;;;;4972049;28;20174;-65
2022/06/08 06:33:12;;;;;;;23.27;16.38;;;15.50;99.90;;;;;;4972407;28;20375;-65
2022/06/08 06:35:40;;;;;;;22.02;15.93;;;15.60;99.90;;;;;;4969814;28;20094;-65
2022/06/08 06:38:06;;;;;;;21.27;15.23;;;15.70;99.90;;;;;;4958924;28;20208;-65
2022/06/08 06:40:32;;;;;;;18.67;13.50;;;15.80;99.90;;;;;;4956355;28;20121;-65
2022/06/08 06:42:58;;;;;;;19.38;13.73;;;15.90;99.90;;;;;;4952883;28;20038;-65
2022/06/08 06:45:24;;;;;;;19.33;13.57;;;16.00;99.90;;;;;;4971203;28;20140;-66
2022/06/08 06:47:50;;;;;;;19.15;13.25;;;16.10;99.90;;;;;;4971797;28;20066;-66
2022/06/08 06:50:17;;;;;;;18.85;13.18;;;16.20;99.90;;;;;;4972055;28;20117;-65
2022/06/08 06:52:44;;;;;;;15.40;11.55;;;16.30;99.90;;;;;;4971482;28;20038;-68
2022/06/08 06:55:22;;;;;;;18.33;12.10;;;16.30;99.90;;;;;;4953882;28;20126;-65
2022/06/08 06:57:48;;;;;;;15.82;11.20;;;16.40;99.90;;;;;;4970118;28;20039;-65
2022/06/08 07:00:14;;;;;;;13.70;10.82;;;16.50;99.90;;;;;;4970852;28;20038;-65
2022/06/08 07:02:42;;;;;;;15.02;10.93;;;16.50;99.90;;;;;;4971083;28;20398;-66
2022/06/08 07:05:15;;;;;;;14.32;11.00;;;16.60;99.90;;;;;;4953216;28;20046;-65
2022/06/08 07:07:41;;;;;;;13.10;9.90;;;16.60;99.90;;;;;;4950226;28;20042;-65
2022/06/08 07:10:07;;;;;;;12.68;9.75;;;16.80;99.90;;;;;;4972282;28;20035;-68
2022/06/08 07:12:33;;;;;;;13.27;9.85;;;16.80;99.90;;;;;;4971460;28;20074;-66
2022/06/08 07:14:58;;;;;;;13.93;9.75;;;16.90;99.90;;;;;;4972071;28;20071;-65
2022/06/08 07:17:25;;;;;;;13.30;9.77;;;17.00;99.90;;;;;;4972192;28;20043;-65
2022/06/08 07:19:51;;;;;;;11.95;7.90;;;17.10;99.90;;;;;;4972203;28;20043;-65
2022/06/08 07:22:17;;;;;;;14.38;8.10;;;17.10;99.90;;;;;;4955060;28;20041;-65
2022/06/08 07:24:43;;;;;;;10.55;7.72;;;17.20;99.90;;;;;;4953543;28;20355;-65
2022/06/08 07:27:09;;;;;;;10.98;7.63;;;17.30;99.90;;;;;;4970705;28;20034;-65
2022/06/08 07:29:34;;;;;;;12.57;7.35;;;17.30;99.90;;;;;;4951873;28;20481;-65
2022/06/08 07:32:00;;;;;;;12.35;7.47;;;17.30;99.90;;;;;;4971440;28;20505;-65
2022/06/08 07:34:27;;;;;;;10.88;8.25;;;17.40;99.90;;;;;;4953760;28;20041;-65
2022/06/08 07:36:53;;;;;;;9.70;7.10;;;17.50;99.90;;;;;;4969382;28;20043;-65
2022/06/08 07:39:20;;;;;;;11.68;7.13;;;17.50;99.90;;;;;;4964905;28;20081;-65
2022/06/08 07:41:47;;;;;;;10.32;7.45;;;17.50;99.90;;;;;;4969729;28;20529;-66
2022/06/08 07:44:14;;;;;;;12.48;7.80;;;17.50;99.90;;;;;;4966562;28;20039;-65
2022/06/08 07:46:40;;;;;;;11.50;8.57;;;17.60;99.90;;;;;;4969724;28;20049;-66
2022/06/08 07:51:54;;;;;;;11.35;6.80;;;17.60;99.90;;;;;;4952235;28;20050;-65
2022/06/08 07:54:25;;;;;;;10.60;7.82;;;17.70;99.90;;;;;;4968458;28;20347;-65
2022/06/08 07:56:53;;;;;;;10.45;7.25;;;17.80;99.90;;;;;;4970360;28;20043;-65
2022/06/08 07:59:22;;;;;;;10.75;7.13;;;17.80;99.90;;;;;;4967305;28;20034;-67
2022/06/08 08:01:48;;;;;;;9.80;6.57;;;17.80;99.90;;;;;;4967859;28;20054;-65
2022/06/08 08:04:13;;;;;;;9.40;7.00;;;17.90;99.90;;;;;;4968965;28;20043;-65
2022/06/08 08:06:39;;;;;;;7.53;6.15;;;18.00;99.90;;;;;;4971471;28;20042;-65
2022/06/08 08:09:05;;;;;;;9.77;6.65;;;18.10;99.90;;;;;;4966399;28;20049;-68
2022/06/08 08:11:30;;;;;;;12.85;7.13;;;18.20;99.90;;;;;;4968032;28;20512;-69
2022/06/08 08:13:56;;;;;;;11.55;6.95;;;18.20;99.90;;;;;;4968996;28;20324;-65
2022/06/08 08:16:22;;;;;;;8.93;6.60;;;18.30;99.90;;;;;;4954276;28;20049;-65
2022/06/08 08:18:48;;;;;;;8.43;6.85;;;18.40;99.90;;;;;;4954201;28;20042;-66
2022/06/08 08:21:14;;;;;;;11.95;6.32;;;18.40;99.90;;;;;;4971512;28;20163;-65
2022/06/08 08:23:39;;;;;;;10.95;6.40;;;18.50;99.90;;;;;;4970272;28;20498;-65
2022/06/08 08:26:05;;;;;;;9.95;7.13;;;18.50;99.90;;;;;;4953168;28;20050;-68
2022/06/08 08:28:31;;;;;;;10.70;6.18;;;18.70;99.90;;;;;;4970579;28;20047;-67
2022/06/08 08:30:57;;;;;;;7.53;5.07;;;18.90;99.90;;;;;;4952007;28;20097;-65
2022/06/08 08:33:22;;;;;;;6.45;4.93;;;19.20;99.90;;;;;;4954335;28;20051;-65
2022/06/08 08:35:50;;;;;;;7.60;4.55;;;19.50;99.90;;;;;;4970666;28;20038;-65
2022/06/08 08:38:16;;;;;;;7.32;4.85;;;19.50;99.90;;;;;;4967842;28;20134;-67
2022/06/08 08:40:47;;;;;;;5.70;3.30;;;19.50;99.90;;;;;;4969233;28;20130;-67
2022/06/08 08:43:20;;;;;;;5.00;4.15;;;19.50;99.90;;;;;;4935869;28;20047;-65
2022/06/08 08:46:21;;;;;;;6.70;3.90;;;19.50;99.90;;;;;;4970064;28;20050;-69
2022/06/08 08:49:03;;;;;;;6.53;3.40;;;19.50;99.90;;;;;;4950667;28;20051;-65
2022/06/08 08:51:43;;;;;;;7.20;3.70;;;19.60;99.90;;;;;;4950633;28;20081;-65
2022/06/08 08:54:50;;;;;;;5.82;4.40;;;19.80;99.90;;;;;;4977585;23;20039;-74
2022/06/08 08:57:20;;;;;;;5.47;3.47;;;19.90;99.90;;;;;;4914509;29;20054;-74
2022/06/08 08:59:51;;;;;;;4.88;3.25;;;19.80;99.90;;;;;;4962837;28;20050;-74
2022/06/08 09:05:16;;;;;;;4.43;2.85;;;19.60;99.90;;;;;;4983559;28;20062;-74
2022/06/08 09:07:43;;;;;;;5.18;2.92;;;19.50;99.90;;;;;;4974544;28;20088;-74
2022/06/08 09:10:21;;;;;;;6.13;3.20;;;19.60;99.90;;;;;;4982632;28;20053;-74
2022/06/08 09:12:47;;;;;;;6.18;3.70;;;19.60;99.90;;;;;;4958049;28;20074;-74
2022/06/08 09:15:16;;;;;;;5.03;3.20;;;19.60;99.90;;;;;;4974666;28;20042;-74
2022/06/08 09:17:57;;;;;;;6.15;3.67;;;19.60;99.90;;;;;;4968050;28;20498;-74
2022/06/08 09:20:23;;;;;;;7.60;3.83;;;19.50;99.90;;;;;;4970071;28;20076;-74
2022/06/08 09:22:52;;;;;;;7.72;4.22;;;19.60;99.90;;;;;;4991187;28;20121;-74
2022/06/08 09:25:38;;;;;;;4.82;3.70;;;19.50;99.90;;;;;;4967424;28;20175;-74
2022/06/08 09:28:24;;;;;;;5.35;4.18;;;19.50;99.90;;;;;;4971716;28;20031;-74
2022/06/08 09:30:52;;;;;;;7.70;4.50;;;19.60;99.90;;;;;;4977813;28;20042;-74
2022/06/08 09:33:38;;;;;;;5.93;4.13;;;19.70;99.90;;;;;;4977046;28;20117;-74
2022/06/08 09:36:24;;;;;;;8.73;4.20;;;19.90;99.90;;;;;;4973249;28;20034;-74
2022/06/08 09:38:50;;;;;;;7.88;3.63;;;20.30;99.90;;;;;;4972640;28;20517;-74
2022/06/08 09:41:38;;;;;;;6.28;3.17;;;20.70;99.90;;;;;;4964126;28;20031;-74
2022/06/08 09:44:26;;;;;;;6.95;3.40;;;21.00;99.90;;;;;;4970277;28;20454;-74
2022/06/08 09:53:26;;;;;;;5.35;3.58;;;20.80;99.90;;;;;;4962377;28;20100;-74
2022/06/08 09:56:10;;;;;;;9.63;3.67;;;20.60;99.90;;;;;;4990794;28;20042;-74
2022/06/08 09:59:15;;;;;;;5.72;3.65;;;20.50;99.90;;;;;;4962158;28;20102;-74
2022/06/08 10:01:52;;;;;;;6.90;4.10;;;20.50;99.90;;;;;;4967130;28;20406;-74
2022/06/08 10:04:20;;;;;;;5.72;4.13;;;20.50;99.90;;;;;;4973391;28;20133;-74
2022/06/08 10:07:18;;;;;;;5.68;3.90;;;20.40;99.90;;;;;;4976713;28;20049;-74
2022/06/08 10:10:01;;;;;;;6.35;4.05;;;20.40;99.90;;;;;;4969738;28;20089;-74
2022/06/08 10:12:58;;;;;;;5.80;3.90;;;20.30;99.90;;;;;;4984778;28;20050;-74
2022/06/08 10:15:26;;;;;;;5.82;3.55;;;20.30;99.90;;;;;;4980109;28;20514;-74
2022/06/08 10:18:13;;;;;;;5.82;3.65;;;20.50;99.90;;;;;;4975223;28;20046;-74
2022/06/08 10:20:44;;;;;;;7.43;3.80;;;20.70;99.90;;;;;;4967076;28;20035;-74
2022/06/08 10:23:34;;;;;;;6.15;3.60;;;20.90;99.90;;;;;;4989859;28;20072;-74
2022/06/08 10:26:22;;;;;;;5.30;3.45;;;21.10;99.90;;;;;;4984268;28;20125;-74
2022/06/08 10:29:00;;;;;;;5.10;3.33;;;21.30;99.90;;;;;;4987684;28;20094;-74
2022/06/08 10:31:35;;;;;;;6.45;4.25;;;21.60;99.90;;;;;;4991133;28;20490;-74
2022/06/08 10:34:18;;;;;;;9.18;4.10;;;21.70;99.90;;;;;;4975405;28;20052;-74
2022/06/08 10:36:49;;;;;;;6.57;4.18;;;21.70;99.90;;;;;;4969662;28;20050;-74
2022/06/08 10:39:15;;;;;;;8.90;4.20;;;21.50;99.90;;;;;;4971229;28;20502;-74
2022/06/08 10:44:37;;;;;;;7.05;4.40;;;21.30;99.90;;;;;;4961802;28;20038;-74
2022/06/08 10:47:25;;;;;;;7.97;4.35;;;21.20;99.90;;;;;;4973928;28;20093;-74
2022/06/08 10:50:10;;;;;;;8.35;4.20;;;21.10;99.90;;;;;;4967548;28;20125;-74
2022/06/08 10:52:45;;;;;;;6.10;4.00;;;21.10;99.90;;;;;;4964610;28;20403;-74
2022/06/08 10:55:17;;;;;;;6.93;4.35;;;21.00;99.90;;;;;;4957086;28;20039;-74
2022/06/08 10:57:51;;;;;;;5.65;3.88;;;20.90;99.90;;;;;;4963600;28;20142;-74
2022/06/08 11:00:20;;;;;;;6.75;3.92;;;20.80;99.90;;;;;;4966509;28;20085;-74
2022/06/08 11:02:51;;;;;;;7.05;3.63;;;20.80;99.90;;;;;;4969139;28;20050;-74
2022/06/08 11:05:29;;;;;;;6.72;4.38;;;20.70;99.90;;;;;;4966728;28;20117;-74
2022/06/08 11:08:00;;;;;;;6.75;3.30;;;20.80;99.90;;;;;;4949639;28;20081;-74
2022/06/08 11:10:41;;;;;;;5.50;3.10;;;20.90;99.90;;;;;;4978607;28;20046;-74
2022/06/08 11:13:22;;;;;;;6.10;3.38;;;21.10;99.90;;;;;;4965461;28;20043;-74
2022/06/08 11:15:54;;;;;;;4.95;3.17;;;21.20;99.90;;;;;;4972955;28;20038;-74
2022/06/08 11:18:47;;;;;;;6.78;2.97;;;21.20;99.90;;;;;;4969629;28;20044;-74
2022/06/08 11:21:57;;;;;;;6.25;2.97;;;21.10;99.90;;;;;;4965999;28;20050;-75
2022/06/08 11:24:47;;;;;;;4.57;2.15;;;21.00;99.90;;;;;;4927744;28;20046;-74
2022/06/08 11:27:24;;;;;;;4.60;1.52;;;20.80;99.90;;;;;;4974878;28;20038;-74
2022/06/08 11:30:23;;;;;;;5.05;1.77;;;20.40;99.90;;;;;;4970800;28;20042;-74
2022/06/08 11:33:17;;;;;;;5.80;1.73;;;20.00;99.90;;;;;;4953646;28;20068;-74
2022/06/08 11:36:08;;;;;;;4.35;1.52;;;19.60;99.90;;;;;;4962733;28;20042;-74
2022/06/08 11:38:48;;;;;;;6.60;1.85;;;19.30;99.90;;;;;;4968981;28;20126;-75
2022/06/08 11:41:26;;;;;;;8.68;2.13;;;19.10;99.90;;;;;;4960738;28;20050;-75
2022/06/08 11:43:52;;;;;;;8.20;2.65;;;18.70;99.90;;;;;;4989984;28;20434;-75
2022/06/08 11:46:34;;;;;;;8.85;2.53;;;18.60;99.90;;;;;;4964042;28;20039;-75
2022/06/08 11:49:00;;;;;;;6.10;2.55;;;18.30;99.90;;;;;;4979049;28;20493;-74
2022/06/08 11:51:32;;;;;;;8.85;2.83;;;18.10;99.90;;;;;;4958954;28;20133;-75
2022/06/08 11:53:58;;;;;;;9.00;2.70;;;18.00;99.90;;;;;;4959960;28;20042;-74
2022/06/08 11:56:25;;;;;;;7.57;2.80;;;17.80;99.90;;;;;;4959905;28;20046;-74
2022/06/08 11:59:03;;;;;;;9.82;3.00;;;17.70;99.90;;;;;;4957925;28;20511;-73
2022/06/08 12:01:42;;;;;;;8.93;2.67;;;17.60;99.90;;;;;;4970746;28;20568;-73
2022/06/08 12:04:24;;;;;;;7.28;2.53;;;17.50;99.90;;;;;;4974600;28;20091;-73
2022/06/08 12:06:51;;;;;;;6.32;2.53;;;17.40;99.90;;;;;;4969509;28;20054;-75
2022/06/08 12:09:26;;;;;;;6.35;2.70;;;17.30;99.90;;;;;;4964269;28;20089;-75
2022/06/08 12:11:55;;;;;;;9.77;2.97;;;17.30;99.90;;;;;;4961971;28;20514;-75
2022/06/08 12:14:37;;;;;;;4.70;2.65;;;17.30;99.90;;;;;;4961843;28;20515;-75
2022/06/08 12:17:04;;;;;;;6.75;2.80;;;17.30;99.90;;;;;;4975819;28;20043;-75
2022/06/08 12:19:46;;;;;;;7.43;3.08;;;17.30;99.90;;;;;;4988706;28;20054;-75
2022/06/08 12:22:19;;;;;;;5.75;2.97;;;17.30;99.90;;;;;;4964272;28;20034;-75
2022/06/08 12:25:09;;;;;;;5.53;2.95;;;17.30;99.90;;;;;;4983382;28;20502;-75
2022/06/08 12:28:00;;;;;;;5.60;3.13;;;17.30;99.90;;;;;;4970108;28;20042;-75
2022/06/08 12:30:32;;;;;;;5.90;3.25;;;17.40;99.90;;;;;;4954188;28;20094;-75
2022/06/08 12:33:23;;;;;;;7.60;3.13;;;17.50;99.90;;;;;;4972683;28;20084;-75
2022/06/08 12:36:18;;;;;;;6.28;3.00;;;17.50;99.90;;;;;;4970334;28;20062;-75
2022/06/08 12:39:08;;;;;;;9.05;3.80;;;17.60;99.90;;;;;;4967617;28;20047;-75
2022/06/08 12:41:54;;;;;;;8.05;4.05;;;17.70;99.90;;;;;;4971834;28;20510;-75
2022/06/08 12:44:26;;;;;;;9.93;4.15;;;17.70;99.90;;;;;;4947287;28;20034;-75
2022/06/08 12:47:12;;;;;;;7.50;4.60;;;17.70;99.90;;;;;;4971094;28;20078;-76
2022/06/08 12:49:44;;;;;;;10.05;4.20;;;17.80;99.90;;;;;;4960442;28;20129;-75
2022/06/08 12:52:36;;;;;;;7.47;4.95;;;17.70;99.90;;;;;;4973279;28;20039;-75
2022/06/08 12:55:11;;;;;;;10.20;5.20;;;17.60;99.90;;;;;;4983539;28;20126;-75
2022/06/08 12:57:38;;;;;;;8.95;5.60;;;17.70;99.90;;;;;;4968239;28;20046;-75
2022/06/08 13:00:09;;;;;;;10.55;5.63;;;17.70;99.90;;;;;;4971197;28;20121;-75
2022/06/08 13:02:38;;;;;;;10.90;6.03;;;17.60;99.90;;;;;;4969202;28;20501;-75
2022/06/08 13:05:22;;;;;;;9.68;6.32;;;17.70;99.90;;;;;;4962481;28;20058;-75
2022/06/08 13:07:48;;;;;;;11.88;6.75;;;17.70;99.90;;;;;;4973527;28;20038;-75
2022/06/08 13:10:15;;;;;;;12.60;6.50;;;17.70;99.90;;;;;;4967787;28;20057;-75
2022/06/08 13:12:45;;;;;;;9.60;6.60;;;17.90;99.90;;;;;;4969297;28;20050;-75
2022/06/08 13:15:19;;;;;;;9.82;6.30;;;18.00;99.90;;;;;;4973690;28;20557;-75
2022/06/08 13:17:45;;;;;;;11.52;6.53;;;18.30;99.90;;;;;;4973468;28;20050;-75
2022/06/08 13:20:24;;;;;;;9.02;6.25;;;18.50;99.90;;;;;;4959561;28;20069;-75
2022/06/08 13:22:50;;;;;;;11.70;6.65;;;18.60;99.90;;;;;;4981818;28;20074;-74